createdAt,value
2017-09-27T00:01:54.752Z,66.00
2017-09-27T00:04:27.774Z,66.00
2017-09-27T00:13:04.285Z,66.10
2017-09-27T00:15:49.799Z,66.00
2017-09-27T00:18:20.115Z,66.10
2017-09-27T00:35:24.693Z,66.10
2017-09-27T00:44:25.199Z,66.10
2017-09-27T01:01:06.772Z,66.20
2017-09-27T01:09:42.941Z,66.30
2017-09-27T01:12:15.167Z,66.20
2017-09-27T01:23:53.995Z,66.70
2017-09-27T01:26:24.324Z,66.30
2017-09-27T01:29:03.917Z,66.30
2017-09-27T01:31:39.249Z,66.30
2017-09-27T01:34:15.381Z,66.40
2017-09-27T01:40:00.097Z,66.60
2017-09-27T01:42:32.793Z,66.80
2017-09-27T01:45:10.966Z,66.90
2017-09-27T01:50:53.060Z,67.30
2017-09-27T01:53:25.531Z,67.40
2017-09-27T01:55:57.194Z,67.30
2017-09-27T01:58:27.572Z,67.30
2017-09-27T02:01:11.156Z,67.30
2017-09-27T02:03:44.495Z,67.40
2017-09-27T02:06:32.889Z,67.30
2017-09-27T02:09:04.827Z,67.10
2017-09-27T02:11:41.049Z,67.10
2017-09-27T02:14:13.086Z,66.90
2017-09-27T02:19:24.532Z,66.80
2017-09-27T02:21:59.063Z,66.80
2017-09-27T02:27:32.343Z,66.70
2017-09-27T02:32:39.733Z,67.00
2017-09-27T02:35:08.341Z,66.80
2017-09-27T02:37:36.920Z,66.80
2017-09-27T02:40:22.769Z,66.70
2017-09-27T02:42:53.362Z,66.70
2017-09-27T02:45:23.983Z,66.90
2017-09-27T02:47:55.177Z,67.00
2017-09-27T02:53:08.660Z,66.90
2017-09-27T03:00:10.192Z,66.90
2017-09-27T03:17:50.660Z,66.90
2017-09-27T03:20:25.036Z,66.80
2017-09-27T03:25:34.788Z,67.00
2017-09-27T03:28:07.877Z,67.00
2017-09-27T03:34:28.702Z,67.20
2017-09-27T03:45:29.111Z,67.10
2017-09-27T03:51:07.349Z,67.10
2017-09-27T03:53:38.088Z,67.10
2017-09-27T03:56:11.647Z,67.40
2017-09-27T04:23:11.505Z,67.80
2017-09-27T04:25:49.916Z,68.10
2017-09-27T04:31:30.109Z,68.00
2017-09-27T04:40:37.188Z,67.30
2017-09-27T04:43:08.824Z,67.30
2017-09-27T04:45:54.084Z,67.10
2017-09-27T04:58:21.129Z,67.00
2017-09-27T05:01:01.295Z,67.00
2017-09-27T05:03:36.090Z,67.00
2017-09-27T05:11:30.981Z,66.90
2017-09-27T05:14:10.800Z,67.00
2017-09-27T05:21:10.930Z,66.90
2017-09-27T05:23:52.460Z,66.80
2017-09-27T05:26:20.700Z,66.90
2017-09-27T05:28:58.098Z,66.70
2017-09-27T05:40:03.236Z,66.60
2017-09-27T05:42:39.483Z,66.70
2017-09-27T05:45:10.761Z,66.60
2017-09-27T05:47:45.382Z,66.60
2017-09-27T05:50:18.298Z,66.60
2017-09-27T06:02:36.375Z,66.50
2017-09-27T06:05:18.874Z,67.00
2017-09-27T06:07:53.948Z,67.00
2017-09-27T06:10:28.983Z,67.00
2017-09-27T06:13:12.876Z,67.20
2017-09-27T06:15:47.772Z,67.20
2017-09-27T06:21:09.733Z,67.50
2017-09-27T06:23:56.324Z,67.50
2017-09-27T06:26:25.161Z,67.70
2017-09-27T06:28:59.211Z,67.70
2017-09-27T06:31:29.332Z,67.60
2017-09-27T06:36:46.424Z,67.50
2017-09-27T06:39:26.065Z,67.60
2017-09-27T06:41:57.918Z,67.70
2017-09-27T06:44:29.129Z,67.70
2017-09-27T06:52:39.233Z,67.40
2017-09-27T06:55:13.905Z,67.40
2017-09-27T06:57:42.512Z,67.30
2017-09-27T07:00:13.818Z,67.60
2017-09-27T07:05:38.100Z,67.60
2017-09-27T07:14:43.435Z,67.50
2017-09-27T07:17:25.681Z,67.60
2017-09-27T07:19:57.135Z,67.60
2017-09-27T07:22:26.978Z,67.80
2017-09-27T07:27:49.226Z,67.60
2017-09-27T07:30:20.363Z,67.40
2017-09-27T07:32:51.725Z,67.60
2017-09-27T07:35:24.587Z,67.60
2017-09-27T07:37:57.272Z,67.70
2017-09-27T07:40:29.579Z,67.60
2017-09-27T07:42:59.161Z,67.60
2017-09-27T07:45:31.965Z,67.40
2017-09-27T07:51:06.466Z,67.10
2017-09-27T07:59:26.435Z,66.80
2017-09-27T08:01:56.557Z,66.60
2017-09-27T08:04:30.552Z,66.30
2017-09-27T08:07:00.628Z,66.30
2017-09-27T08:09:28.312Z,66.20
2017-09-27T08:11:57.597Z,66.00
2017-09-27T08:14:25.216Z,66.00
2017-09-27T08:16:52.822Z,66.00
2017-09-27T08:19:20.838Z,65.80
2017-09-27T08:21:48.496Z,65.70
2017-09-27T08:24:17.009Z,65.50
2017-09-27T08:30:24.895Z,65.50
2017-09-27T08:32:53.327Z,64.80
2017-09-27T08:38:26.435Z,64.30
2017-09-27T10:06:28.951Z,61.40
2017-09-27T10:27:19.661Z,60.90
2017-09-27T11:28:23.107Z,58.90
2017-09-27T11:30:50.711Z,59.10
2017-09-27T11:33:19.046Z,59.30
2017-09-27T11:35:46.594Z,59.20
2017-09-27T11:38:14.172Z,58.90
2017-09-27T11:40:42.516Z,58.90
2017-09-27T11:43:10.071Z,58.60
2017-09-27T11:45:37.601Z,58.30
2017-09-27T11:48:05.268Z,58.20
2017-09-27T11:50:32.871Z,58.00
2017-09-27T11:53:00.944Z,57.80
2017-09-27T11:55:28.495Z,57.60
2017-09-27T11:57:56.069Z,57.30
2017-09-27T12:00:23.701Z,57.20
2017-09-27T12:02:52.036Z,57.10
2017-09-27T12:05:19.550Z,57.00
2017-09-27T12:07:47.148Z,57.00
2017-09-27T12:10:14.741Z,56.90
2017-09-27T12:12:43.075Z,56.80
2017-09-27T12:15:11.473Z,56.60
2017-09-27T12:17:39.088Z,56.50
2017-09-27T12:20:07.552Z,56.50
2017-09-27T12:22:35.866Z,56.30
2017-09-27T12:25:07.260Z,56.30
2017-09-27T12:27:34.850Z,56.20
2017-09-27T12:30:02.517Z,56.10
2017-09-27T12:32:30.968Z,56.20
2017-09-27T12:34:59.098Z,56.30
2017-09-27T12:37:26.680Z,56.50
2017-09-27T12:39:54.296Z,56.70
2017-09-27T12:42:22.746Z,56.80
2017-09-27T12:44:50.331Z,57.10
2017-09-27T12:47:17.848Z,57.20
2017-09-27T12:49:45.400Z,57.40
2017-09-27T12:52:14.000Z,57.50
2017-09-27T12:54:41.587Z,57.50
2017-09-27T12:57:09.202Z,57.60
2017-09-27T12:59:37.516Z,57.60
2017-09-27T13:02:06.542Z,57.80
2017-09-27T13:04:34.178Z,57.80
2017-09-27T13:07:02.552Z,58.00
2017-09-27T13:09:30.838Z,57.90
2017-09-27T13:21:38.453Z,58.10
2017-09-27T13:24:06.083Z,58.90
2017-09-27T13:26:33.779Z,59.20
2017-09-27T13:29:01.388Z,59.20
2017-09-27T13:31:28.943Z,59.30
2017-09-27T13:33:56.514Z,59.30
2017-09-27T13:36:24.072Z,59.20
2017-09-27T13:38:51.635Z,59.20
2017-09-27T13:41:20.064Z,59.30
2017-09-27T13:43:47.655Z,59.30
2017-09-27T13:46:15.242Z,59.30
2017-09-27T13:48:42.868Z,59.40
2017-09-27T13:51:11.187Z,59.50
2017-09-27T13:53:38.731Z,59.40
2017-09-27T13:56:06.664Z,59.50
2017-09-27T13:58:34.210Z,59.40
2017-09-27T14:01:02.319Z,59.40
2017-09-27T14:03:30.680Z,59.50
2017-09-27T14:05:58.218Z,59.50
2017-09-27T14:08:26.352Z,59.60
2017-09-27T14:10:53.916Z,59.60
2017-09-27T14:13:21.451Z,59.80
2017-09-27T14:15:49.029Z,59.80
2017-09-27T14:18:16.617Z,59.80
2017-09-27T14:20:44.206Z,59.90
2017-09-27T14:23:11.761Z,60.80
2017-09-27T14:25:39.309Z,60.10
2017-09-27T14:28:07.610Z,60.40
2017-09-27T14:30:35.871Z,60.40
2017-09-27T14:33:03.425Z,60.50
2017-09-27T14:35:30.988Z,60.60
2017-09-27T14:37:58.532Z,60.60
2017-09-27T14:40:26.069Z,60.70
2017-09-27T14:42:53.698Z,60.60
2017-09-27T14:45:22.063Z,60.80
2017-09-27T14:47:50.358Z,61.10
2017-09-27T14:50:18.972Z,61.10
2017-09-27T14:52:46.532Z,61.10
2017-09-27T14:55:14.261Z,61.20
2017-09-27T14:57:41.908Z,61.20
2017-09-27T15:00:10.282Z,61.30
2017-09-27T15:02:37.847Z,61.20
2017-09-27T15:05:05.554Z,61.30
2017-09-27T15:07:33.113Z,61.20
2017-09-27T15:10:00.725Z,61.20
2017-09-27T15:12:28.242Z,61.20
2017-09-27T15:14:55.763Z,61.30
2017-09-27T15:17:24.119Z,61.30
2017-09-27T15:19:52.403Z,61.40
2017-09-27T15:22:20.697Z,61.30
2017-09-27T15:24:49.005Z,61.30
2017-09-27T15:27:16.503Z,61.30
2017-09-27T15:29:44.050Z,61.20
2017-09-27T15:32:11.611Z,61.30
2017-09-27T15:34:39.177Z,61.30
2017-09-27T15:37:06.743Z,61.40
2017-09-27T15:39:34.265Z,61.50
2017-09-27T15:42:01.874Z,61.50
2017-09-27T15:44:29.406Z,61.60
2017-09-27T15:46:56.986Z,61.60
2017-09-27T15:49:24.551Z,61.70
2017-09-27T15:51:52.089Z,61.80
2017-09-27T15:54:19.642Z,61.90
2017-09-27T15:56:47.196Z,62.10
2017-09-27T15:59:14.719Z,62.10
2017-09-27T16:01:42.332Z,62.30
2017-09-27T16:04:09.895Z,62.30
2017-09-27T16:06:37.403Z,62.40
2017-09-27T16:09:04.940Z,62.50
2017-09-27T16:11:33.367Z,62.60
2017-09-27T16:14:01.657Z,62.70
2017-09-27T16:16:29.184Z,62.60
2017-09-27T16:18:56.763Z,62.70
2017-09-27T16:21:24.551Z,62.80
2017-09-27T16:23:52.091Z,62.80
2017-09-27T16:26:19.692Z,63.60
2017-09-27T16:28:47.278Z,62.80
2017-09-27T16:31:14.795Z,62.90
2017-09-27T16:33:42.366Z,63.10
2017-09-27T16:36:09.931Z,63.00
2017-09-27T16:38:38.224Z,63.10
2017-09-27T16:41:06.532Z,63.10
2017-09-27T16:43:34.126Z,63.10
2017-09-27T16:46:01.847Z,63.30
2017-09-27T16:48:29.374Z,63.50
2017-09-27T16:50:56.977Z,63.50
2017-09-27T16:53:24.506Z,63.60
2017-09-27T16:55:52.786Z,63.60
2017-09-27T16:58:20.385Z,63.50
2017-09-27T17:00:47.990Z,63.80
2017-09-27T17:03:16.290Z,63.90
2017-09-27T17:05:43.872Z,63.90
2017-09-27T17:08:11.417Z,64.00
2017-09-27T17:10:39.018Z,63.90
2017-09-27T17:13:06.560Z,64.00
2017-09-27T17:15:34.079Z,63.90
2017-09-27T17:18:02.468Z,65.10
2017-09-27T17:20:30.002Z,64.30
2017-09-27T17:22:58.340Z,64.50
2017-09-27T17:25:25.924Z,64.50
2017-09-27T17:27:53.463Z,64.60
2017-09-27T17:30:21.004Z,64.60
2017-09-27T17:32:48.596Z,64.60
2017-09-27T17:35:16.153Z,64.80
2017-09-27T17:37:43.672Z,64.80
2017-09-27T17:40:11.218Z,64.60
2017-09-27T17:42:38.720Z,64.60
2017-09-27T17:45:07.197Z,64.70
2017-09-27T17:47:35.035Z,64.70
2017-09-27T17:50:02.651Z,64.70
2017-09-27T17:52:30.272Z,64.90
2017-09-27T17:54:57.810Z,65.00
2017-09-27T17:57:25.317Z,64.80
2017-09-27T17:59:52.895Z,65.00
2017-09-27T18:02:20.425Z,65.00
2017-09-27T18:04:58.765Z,65.10
2017-09-27T18:07:31.930Z,65.10
2017-09-27T18:10:20.292Z,65.10
2017-09-27T18:12:51.518Z,65.30
2017-09-27T18:15:24.593Z,65.30
2017-09-27T18:18:08.811Z,65.40
2017-09-27T18:20:37.878Z,65.50
2017-09-27T18:23:05.516Z,65.50
2017-09-27T18:25:33.236Z,65.50
2017-09-27T18:28:00.844Z,65.40
2017-09-27T18:30:28.421Z,65.50
2017-09-27T18:32:56.752Z,65.40
2017-09-27T18:35:25.188Z,65.40
2017-09-27T18:37:52.729Z,65.40
2017-09-27T18:40:20.287Z,65.50
2017-09-27T18:42:47.876Z,65.60
2017-09-27T18:45:16.375Z,65.40
2017-09-27T18:47:43.896Z,65.40
2017-09-27T18:50:11.427Z,65.60
2017-09-27T18:52:39.565Z,65.60
2017-09-27T18:55:07.237Z,65.70
2017-09-27T18:57:34.986Z,65.70
2017-09-27T19:00:03.449Z,65.70
2017-09-27T19:02:31.196Z,65.60
2017-09-27T19:04:58.724Z,65.70
2017-09-27T19:07:26.273Z,65.70
2017-09-27T19:09:53.858Z,65.70
2017-09-27T19:12:21.376Z,65.80
2017-09-27T19:14:48.955Z,65.80
2017-09-27T19:17:16.591Z,65.70
2017-09-27T19:19:44.115Z,65.80
2017-09-27T19:22:11.639Z,65.90
2017-09-27T19:24:39.212Z,66.00
2017-09-27T19:27:06.786Z,65.90
2017-09-27T19:29:34.366Z,65.90
2017-09-27T19:32:01.942Z,66.00
2017-09-27T19:34:30.327Z,66.10
2017-09-27T19:36:57.945Z,66.00
2017-09-27T19:39:25.581Z,66.00
2017-09-27T19:41:53.137Z,65.90
2017-09-27T19:44:20.735Z,66.00
2017-09-27T19:46:48.314Z,65.90
2017-09-27T19:49:15.824Z,66.00
2017-09-27T19:51:43.401Z,66.00
2017-09-27T19:54:10.943Z,66.00
2017-09-27T19:56:38.497Z,66.00
2017-09-27T19:59:06.084Z,65.90
2017-09-27T20:01:33.900Z,66.00
2017-09-27T20:04:01.459Z,66.10
2017-09-27T20:06:29.034Z,66.30
2017-09-27T20:18:37.592Z,66.30
2017-09-27T20:21:05.148Z,67.60
2017-09-27T20:23:32.673Z,67.70
2017-09-27T20:26:00.226Z,67.90
2017-09-27T20:28:27.765Z,67.90
2017-09-27T20:30:55.303Z,68.00
2017-09-27T20:33:22.849Z,68.00
2017-09-27T20:35:50.437Z,67.90
2017-09-27T20:38:18.009Z,68.00
2017-09-27T20:40:45.549Z,68.10
2017-09-27T20:43:13.147Z,67.90
2017-09-27T20:45:40.669Z,67.80
2017-09-27T20:48:08.239Z,67.80
2017-09-27T20:50:37.059Z,67.70
2017-09-27T20:53:04.633Z,67.80
2017-09-27T20:55:32.254Z,67.70
2017-09-27T20:57:59.809Z,67.70
2017-09-27T21:00:28.121Z,67.60
2017-09-27T21:02:55.619Z,67.60
2017-09-27T21:05:23.933Z,67.50
2017-09-27T21:07:51.454Z,67.40
2017-09-27T21:10:19.001Z,67.60
2017-09-27T21:12:48.305Z,67.60
2017-09-27T21:15:15.865Z,67.60
2017-09-27T21:17:43.487Z,67.60
2017-09-27T21:20:11.079Z,67.60
2017-09-27T21:22:38.681Z,67.60
2017-09-27T21:25:06.375Z,67.70
2017-09-27T21:27:33.888Z,67.80
2017-09-27T21:30:01.482Z,67.80
2017-09-27T21:32:28.995Z,67.80
2017-09-27T21:34:56.585Z,67.70
2017-09-27T21:37:24.143Z,67.60
2017-09-27T21:39:51.721Z,67.70
2017-09-27T21:42:19.302Z,67.90
2017-09-27T21:44:46.815Z,68.00
2017-09-27T21:47:14.353Z,68.00
2017-09-27T21:49:41.928Z,67.90
2017-09-27T21:52:09.485Z,67.90
2017-09-27T21:54:37.091Z,67.90
2017-09-27T21:57:05.400Z,68.00
2017-09-27T21:59:33.716Z,67.90
2017-09-27T22:02:01.288Z,67.80
2017-09-27T22:04:28.830Z,67.80
2017-09-27T22:06:56.368Z,67.80
2017-09-27T22:09:23.892Z,67.90
2017-09-27T22:11:51.427Z,67.90
2017-09-27T22:14:19.008Z,67.90
2017-09-27T22:16:46.558Z,67.80
2017-09-27T22:19:14.092Z,67.80
2017-09-27T22:21:41.703Z,67.70
2017-09-27T22:24:10.068Z,68.40
2017-09-27T22:26:38.916Z,67.60
2017-09-27T22:29:06.487Z,67.70
2017-09-27T22:31:34.006Z,67.70
2017-09-27T22:34:01.569Z,67.60
2017-09-27T22:36:29.171Z,67.60
2017-09-27T22:38:56.704Z,67.70
2017-09-27T22:41:24.243Z,67.90
2017-09-27T22:43:51.814Z,67.90
2017-09-27T22:46:19.388Z,67.80
2017-09-27T22:48:46.910Z,67.90
2017-09-27T22:51:14.466Z,68.00
2017-09-27T22:53:41.975Z,68.00
2017-09-27T22:56:09.553Z,68.00
2017-09-27T22:58:37.098Z,67.80
2017-09-27T23:01:04.663Z,67.90
2017-09-27T23:03:32.244Z,67.80
2017-09-27T23:05:59.810Z,67.80
2017-09-27T23:08:27.375Z,67.60
2017-09-27T23:10:54.961Z,67.70
2017-09-27T23:13:22.502Z,67.70
2017-09-27T23:15:50.026Z,67.60
2017-09-27T23:18:17.569Z,67.60
2017-09-27T23:20:45.108Z,67.60
2017-09-27T23:23:12.615Z,67.70
2017-09-27T23:25:40.168Z,67.80
2017-09-27T23:28:07.680Z,67.80
2017-09-27T23:30:35.217Z,67.70
2017-09-27T23:33:02.747Z,67.80
2017-09-27T23:35:30.318Z,67.90
2017-09-27T23:37:57.831Z,68.00
2017-09-27T23:40:25.374Z,68.00
2017-09-27T23:42:52.897Z,68.00
2017-09-27T23:45:20.409Z,67.90
2017-09-27T23:47:47.947Z,67.90
2017-09-27T23:50:15.672Z,67.90
2017-09-27T23:52:44.010Z,68.00
2017-09-27T23:55:12.368Z,67.90
2017-09-27T23:57:39.903Z,68.00
